Wednesday, August 15, 2018, 7:08 AM EDT
Back to Local

KACY, Atlantic City International

Location: Absecon, NJ, United States Lat: 39.467
Local Time: 7:08 AM EDT (11:08 GMT) Lon: -74.583
Time Zone: US/Eastern Elev: 75 ft

Show me the last for .
Show Decoded

2018-08-15 06:54 METAR KACY 151054Z 26008KT 10SM BKN080 23/21 A2993 RMK AO2 SLP134 T02330206 =
2018-08-15 05:54 METAR KACY 150954Z 25005KT 10SM OVC085 24/20 A2991 RMK AO2 SLP127 T02390200 =
2018-08-15 04:54 METAR KACY 150854Z 28006KT 10SM BKN070 OVC085 24/20 A2990 RMK AO2 SLP125
                 T02390200 55004 =
2018-08-15 03:54 METAR KACY 150754Z 25010KT 10SM OVC075 24/20 A2990 RMK AO2 SLP123 T02440200 =
2018-08-15 02:54 METAR KACY 150654Z 25007KT 9SM OVC090 24/20 A2991 RMK AO2 SLP126 T02390200 =
2018-08-15 01:54 METAR KACY 150554Z 24006KT 8SM FEW055 SCT075 OVC095 23/20 A2992 RMK AO2 SLP129
                 T02330200 10250 20228 50003 =
2018-08-15 00:54 METAR KACY 150454Z 25006KT 8SM FEW080 SCT120 23/20 A2992 RMK AO2 SLP130
                 T02330200 403000206 =
2018-08-14 23:54 METAR KACY 150354Z 26009KT 9SM CLR 23/20 A2992 RMK AO2 SLP130 T02330200 =
2018-08-14 22:54 METAR KACY 150254Z 26008KT 10SM CLR 24/20 A2991 RMK AO2 SLP127 T02440200 51006 =
2018-08-14 21:54 METAR KACY 150154Z 25005KT 9SM OVC045 24/19 A2991 RMK AO2 LTG DSNT S SLP126
                 T02440194 =
2018-08-14 20:54 METAR KACY 150054Z VRB05KT 10SM CLR 25/19 A2990 RMK AO2 SLP123 T02500189 =
2018-08-14 19:54 METAR KACY 142354Z 27005KT 10SM SCT042 BKN049 BKN070 25/19 A2989 RMK AO2 SLP120
                 T02500189 10300 20250 52014 =
2018-08-14 18:54 METAR KACY 142254Z 25006KT 10SM SCT042 BKN049 OVC070 28/19 A2987 RMK AO2 SLP114
                 T02780194 =
2018-08-14 17:54 METAR KACY 142154Z 26011KT 10SM CLR 28/20 A2987 RMK AO2 SLP113 T02830200 =
2018-08-14 16:54 METAR KACY 142054Z 24013KT 10SM FEW040 29/19 A2985 RMK AO2 LTG DSNT NW SLP107
                 T02890194 56011 =
2018-08-14 15:54 METAR KACY 141954Z 25011G22KT 10SM BKN036 29/20 A2985 RMK AO2 SLP108 T02940200 =
2018-08-14 14:54 METAR KACY 141854Z 25011G20KT 10SM FEW038 29/20 A2986 RMK AO2 SLP112 T02940200 =
2018-08-14 13:54 METAR KACY 141754Z 25011KT 10SM FEW035 29/19 A2988 RMK AO2 SLP118 T02890194
                 10294 20244 58010 =
2018-08-14 12:54 METAR KACY 141654Z 25010G17KT 220V280 10SM SCT029 28/20 A2990 RMK AO2 SLP123
                 T02830200 =
2018-08-14 11:54 METAR KACY 141554Z 23010KT 10SM CLR 28/20 A2991 RMK AO2 SLP126 T02830200 =
2018-08-14 11:01 METAR KACY 141501Z 26010G18KT 10SM FEW025 27/20 A2991 RMK AO2 T02720200 =
2018-08-14 10:54 METAR KACY 141454Z 25010KT 10SM FEW016 SCT023 BKN028 27/21 A2991 RMK AO2 SLP128
                 T02720211 53003 =
2018-08-14 09:54 METAR KACY 141354Z 26009KT 10SM FEW016 BKN023 BKN028 26/21 A2991 RMK AO2 SLP127
                 T02560211 =
2018-08-14 08:54 METAR KACY 141254Z 24006KT 10SM BKN014 24/22 A2990 RMK AO2 SLP125 T02440217 =
2018-08-14 07:54 METAR KACY 141154Z 24005KT 10SM CLR 24/22 A2990 RMK AO2 SLP125 70003 T02440217
                 10244 20206 50004 =

Support USWX by starting your Amazon purchase here.